Time;durP1;ratioP1;P1;durP2;ratioP2;P2;SDS_P1;SDS_P2;PMS_P1;PMS_P2;Temp;Humidity;BMP_temperature;BMP_pressure;BME280_temperature;BME280_humidity;BME280_pressure;Samples;Min_cycle;Max_cycle;Signal;HPM_P1;HPM_P2
2022/09/30 05:02:37;;;;;;;14.95;9.68;;;7.30;99.90;;;;;;6155953;23;20036;-77
2022/09/30 05:05:03;;;;;;;17.05;9.52;;;7.20;99.90;;;;;;6222719;23;20001;-77
2022/09/30 05:07:30;;;;;;;16.83;10.65;;;7.20;99.90;;;;;;6172197;23;19996;-77
2022/09/30 05:09:56;;;;;;;18.95;10.73;;;7.20;99.90;;;;;;6197424;23;20013;-76
2022/09/30 05:12:22;;;;;;;43.45;27.25;;;7.20;99.90;;;;;;6224504;23;20245;-74
2022/09/30 05:14:48;;;;;;;23.38;15.48;;;7.20;99.90;;;;;;6225097;23;20186;-75
2022/09/30 05:17:14;;;;;;;21.40;12.70;;;7.10;99.90;;;;;;6224294;23;20000;-76
2022/09/30 05:19:39;;;;;;;18.33;11.68;;;7.10;99.90;;;;;;6224290;23;20067;-75
2022/09/30 05:22:08;;;;;;;21.35;12.02;;;7.00;99.90;;;;;;6223218;23;20051;-76
2022/09/30 05:24:34;;;;;;;21.33;11.77;;;7.00;99.90;;;;;;6197632;23;20001;-76
2022/09/30 05:27:01;;;;;;;20.95;12.13;;;7.00;99.90;;;;;;6198331;23;20291;-76
2022/09/30 05:29:26;;;;;;;17.58;11.60;;;7.00;99.90;;;;;;6223976;23;20056;-77
2022/09/30 05:31:52;;;;;;;20.35;11.88;;;6.90;99.90;;;;;;6197700;23;20005;-76
2022/09/30 05:34:22;;;;;;;20.88;13.32;;;6.90;99.90;;;;;;6223385;23;20007;-79
2022/09/30 05:36:56;;;;;;;48.75;28.83;;;7.00;99.90;;;;;;6197545;23;20225;-75
2022/09/30 05:39:51;;;;;;;33.10;19.92;;;7.10;99.90;;;;;;6223749;23;20183;-77
2022/09/30 05:42:24;;;;;;;26.17;14.43;;;7.10;99.90;;;;;;6107204;23;20243;-76
2022/09/30 05:45:05;;;;;;;23.77;13.98;;;7.20;99.90;;;;;;6106005;23;20005;-75
2022/09/30 05:47:49;;;;;;;24.95;14.30;;;7.30;99.90;;;;;;6204788;23;20031;-76
2022/09/30 05:50:18;;;;;;;21.77;13.90;;;7.30;99.90;;;;;;6198238;23;20032;-75
2022/09/30 05:52:52;;;;;;;32.65;19.63;;;7.30;99.90;;;;;;6209103;23;20005;-74
2022/09/30 05:55:51;;;;;;;58.58;35.42;;;7.30;99.90;;;;;;6239290;23;20089;-74
2022/09/30 06:08:29;;;;;;;24.50;15.65;;;7.40;99.90;;;;;;6196831;23;20047;-77
2022/09/30 06:15:04;;;;;;;25.88;15.35;;;7.40;99.90;;;;;;6201962;23;20129;-77
2022/09/30 06:33:41;;;;;;;25.25;15.60;;;7.80;99.90;;;;;;6252655;23;20008;-78
2022/09/30 06:36:48;;;;;;;22.90;14.88;;;7.90;99.90;;;;;;6219880;23;20023;-77
2022/09/30 06:42:21;;;;;;;24.02;15.73;;;8.10;99.90;;;;;;6166537;23;20039;-84
2022/09/30 06:44:57;;;;;;;26.35;15.00;;;8.20;99.90;;;;;;6220550;23;20008;-75
2022/09/30 06:47:53;;;;;;;25.55;16.08;;;8.30;99.90;;;;;;6228663;23;20000;-78
2022/09/30 06:50:38;;;;;;;26.02;15.50;;;8.40;99.90;;;;;;6197319;23;20015;-76
2022/09/30 06:53:19;;;;;;;25.33;15.85;;;8.60;99.90;;;;;;6195655;23;20024;-77
2022/09/30 06:56:06;;;;;;;25.00;14.40;;;8.60;99.90;;;;;;6196704;23;20043;-76
2022/09/30 07:02:41;;;;;;;20.95;14.45;;;8.90;99.90;;;;;;6238964;23;20007;-78
2022/09/30 07:05:16;;;;;;;23.73;14.70;;;8.90;99.90;;;;;;6224858;23;20463;-79
2022/09/30 07:07:48;;;;;;;34.30;19.65;;;8.90;99.90;;;;;;6229278;23;20001;-79
2022/09/30 07:10:13;;;;;;;34.75;20.90;;;9.00;99.90;;;;;;6219687;23;20008;-77
2022/09/30 07:12:42;;;;;;;34.67;20.92;;;8.90;99.90;;;;;;6219642;23;20051;-78
2022/09/30 07:15:08;;;;;;;33.35;21.42;;;9.00;99.90;;;;;;6219359;23;20028;-78
2022/09/30 07:18:04;;;;;;;36.33;20.60;;;9.10;99.90;;;;;;6219740;23;20055;-75
2022/09/30 07:20:30;;;;;;;27.15;16.48;;;9.20;99.90;;;;;;6194955;23;20307;-76
2022/09/30 07:22:57;;;;;;;25.75;15.65;;;9.20;99.90;;;;;;6246726;22;20023;-76
2022/09/30 07:25:23;;;;;;;20.73;13.53;;;9.30;99.90;;;;;;6221263;23;20051;-77
2022/09/30 07:28:04;;;;;;;21.25;14.82;;;9.40;99.90;;;;;;6200883;23;20400;-76
2022/09/30 07:30:59;;;;;;;25.38;15.25;;;9.50;99.90;;;;;;6226977;23;20080;-81
2022/09/30 07:34:41;;;;;;;23.70;15.23;;;9.60;99.90;;;;;;6223837;23;20019;-80
2022/09/30 07:41:18;;;;;;;18.45;13.05;;;9.80;99.90;;;;;;6222873;22;20011;-79
2022/09/30 07:43:45;;;;;;;17.38;12.52;;;10.00;99.90;;;;;;6247893;23;20107;-79
2022/09/30 07:46:37;;;;;;;17.25;12.15;;;10.10;99.90;;;;;;6247616;23;20005;-78
2022/09/30 07:49:04;;;;;;;17.27;12.20;;;10.20;99.90;;;;;;6223373;23;20290;-77
2022/09/30 07:51:45;;;;;;;18.58;12.85;;;10.30;99.90;;;;;;6246958;23;20005;-79
2022/09/30 07:54:23;;;;;;;18.67;12.40;;;10.50;99.90;;;;;;6247482;23;20005;-77
2022/09/30 07:56:51;;;;;;;19.35;11.93;;;10.80;99.90;;;;;;6247256;23;19996;-79
2022/09/30 07:59:17;;;;;;;16.58;11.20;;;11.10;99.90;;;;;;6248437;23;20032;-77
2022/09/30 08:01:56;;;;;;;15.40;10.52;;;11.40;99.90;;;;;;6248477;23;20011;-79
2022/09/30 08:07:40;;;;;;;16.65;10.32;;;11.90;99.90;;;;;;6227600;23;20050;-77
2022/09/30 08:10:10;;;;;;;16.38;10.15;;;12.00;99.90;;;;;;6222960;23;20222;-77
2022/09/30 08:12:38;;;;;;;15.85;10.65;;;12.00;99.90;;;;;;6195826;23;20056;-77
2022/09/30 08:15:08;;;;;;;15.55;10.30;;;12.10;99.90;;;;;;6246954;23;20004;-78
2022/09/30 08:17:35;;;;;;;16.20;10.25;;;12.20;99.90;;;;;;6244442;23;20005;-78
2022/09/30 08:20:01;;;;;;;16.63;10.30;;;12.30;99.90;;;;;;6246072;23;20004;-77
2022/09/30 08:22:27;;;;;;;17.20;10.23;;;12.40;99.90;;;;;;6221584;23;20346;-78
2022/09/30 08:24:53;;;;;;;13.82;9.63;;;12.50;99.90;;;;;;6245900;23;20305;-79
2022/09/30 08:27:19;;;;;;;14.43;9.80;;;12.60;99.90;;;;;;6220765;23;20159;-77
2022/09/30 08:29:45;;;;;;;15.10;10.23;;;12.40;99.90;;;;;;6219989;23;20299;-76
2022/09/30 08:32:10;;;;;;;15.95;10.25;;;12.40;99.90;;;;;;6221023;23;20015;-76
2022/09/30 08:34:36;;;;;;;15.13;9.15;;;12.30;99.90;;;;;;6221855;23;20008;-77
2022/09/30 08:37:05;;;;;;;15.25;9.60;;;12.30;99.90;;;;;;6220546;23;20225;-77
2022/09/30 08:39:31;;;;;;;14.82;9.93;;;12.50;99.90;;;;;;6220129;23;20056;-76
2022/09/30 08:42:25;;;;;;;15.35;10.07;;;12.60;99.90;;;;;;6221095;23;20004;-77
2022/09/30 08:44:51;;;;;;;17.73;10.68;;;12.70;99.90;;;;;;6220964;23;20190;-77
2022/09/30 08:47:41;;;;;;;15.43;10.48;;;12.60;99.90;;;;;;6196565;23;20069;-78
2022/09/30 08:50:17;;;;;;;17.42;11.70;;;12.40;99.90;;;;;;6220971;23;20166;-76
2022/09/30 08:52:52;;;;;;;17.92;11.02;;;12.30;99.90;;;;;;6245932;23;20024;-78
2022/09/30 08:55:44;;;;;;;22.63;12.25;;;12.10;99.90;;;;;;6246599;23;20007;-75
2022/09/30 08:58:37;;;;;;;18.23;11.82;;;12.10;99.90;;;;;;6238448;23;20056;-77
2022/09/30 09:01:22;;;;;;;18.40;12.00;;;11.90;99.90;;;;;;6239958;23;20024;-76
2022/09/30 09:03:48;;;;;;;18.30;11.65;;;11.90;99.90;;;;;;6246278;23;20027;-76
2022/09/30 09:06:38;;;;;;;22.05;13.23;;;11.90;99.90;;;;;;6246822;23;20133;-76
2022/09/30 09:09:38;;;;;;;18.50;12.63;;;11.90;99.90;;;;;;6220960;23;20147;-77
2022/09/30 09:12:34;;;;;;;17.95;11.77;;;12.20;99.90;;;;;;6196417;23;20079;-78
2022/09/30 09:15:20;;;;;;;18.83;12.15;;;12.20;99.90;;;;;;6221422;23;19997;-75
2022/09/30 09:17:52;;;;;;;16.95;11.18;;;12.30;99.90;;;;;;6219908;23;20063;-76
2022/09/30 09:20:24;;;;;;;15.95;10.88;;;12.50;99.90;;;;;;6220558;23;20001;-76
2022/09/30 09:22:51;;;;;;;14.90;10.32;;;12.80;99.90;;;;;;6245333;23;20019;-77
2022/09/30 09:25:24;;;;;;;17.70;11.75;;;13.00;99.90;;;;;;6222657;23;20342;-76
2022/09/30 09:28:32;;;;;;;17.23;11.35;;;13.30;99.90;;;;;;6221827;23;20083;-76
2022/09/30 09:30:59;;;;;;;;;;;13.50;99.90;;;;;;6164806;23;20005;-77
2022/09/30 09:33:30;;;;;;;15.02;10.77;;;13.50;99.90;;;;;;6189316;23;19920;-76
2022/09/30 09:36:13;;;;;;;15.38;11.45;;;13.60;99.90;;;;;;6188522;23;20001;-76
2022/09/30 09:39:21;;;;;;;16.85;11.43;;;13.50;99.90;;;;;;6188861;23;20013;-77
2022/09/30 09:42:04;;;;;;;15.95;11.30;;;13.60;99.90;;;;;;6188084;23;20020;-76
2022/09/30 09:44:40;;;;;;;14.45;10.30;;;13.60;99.90;;;;;;6164626;23;20255;-75
2022/09/30 09:47:14;;;;;;;16.90;10.85;;;13.80;99.90;;;;;;6189228;23;20115;-75
2022/09/30 09:49:44;;;;;;;13.95;10.25;;;14.00;99.90;;;;;;6188718;23;20055;-75
2022/09/30 09:52:13;;;;;;;16.45;10.65;;;14.00;99.90;;;;;;6189020;23;20001;-75
2022/09/30 09:54:40;;;;;;;15.15;10.00;;;14.20;99.90;;;;;;6188656;23;20343;-74
2022/09/30 09:57:11;;;;;;;15.68;10.60;;;14.30;99.90;;;;;;6189225;23;20330;-77
2022/09/30 09:59:53;;;;;;;13.93;10.27;;;14.40;99.90;;;;;;6188834;23;20012;-75
2022/09/30 10:02:32;;;;;;;14.65;10.38;;;14.40;99.90;;;;;;6193813;23;20008;-72
2022/09/30 10:05:02;;;;;;;12.52;9.10;;;14.40;99.90;;;;;;6196431;23;20079;-73
2022/09/30 10:07:33;;;;;;;18.70;11.82;;;14.60;99.90;;;;;;6229827;23;20039;-76
2022/09/30 10:10:44;;;;;;;16.25;9.38;;;14.70;99.90;;;;;;6230064;23;20059;-76
2022/09/30 10:13:49;;;;;;;11.27;8.20;;;14.70;99.90;;;;;;6229430;23;20008;-75
2022/09/30 10:16:36;;;;;;;11.77;8.10;;;14.80;99.90;;;;;;6245494;23;20008;-75
2022/09/30 10:19:27;;;;;;;14.98;9.35;;;14.70;99.90;;;;;;6198624;23;20062;-77
2022/09/30 10:22:13;;;;;;;12.38;8.20;;;14.90;99.90;;;;;;6221112;23;20075;-75
2022/09/30 10:24:46;;;;;;;11.32;7.90;;;15.00;99.90;;;;;;6219307;23;20042;-73
2022/09/30 10:27:34;;;;;;;12.40;7.82;;;15.20;99.90;;;;;;6221128;23;20001;-77
2022/09/30 10:30:05;;;;;;;11.48;7.55;;;15.30;99.90;;;;;;6219598;23;20024;-73
2022/09/30 10:32:31;;;;;;;10.63;7.85;;;15.40;99.90;;;;;;6221525;23;20311;-74
2022/09/30 10:35:06;;;;;;;11.23;6.85;;;15.60;99.90;;;;;;6221359;23;20008;-74
2022/09/30 10:37:31;;;;;;;9.63;6.22;;;15.70;99.90;;;;;;6222398;23;20040;-76
2022/09/30 10:40:01;;;;;;;10.10;7.15;;;15.80;99.90;;;;;;6220391;23;20013;-76
2022/09/30 10:42:36;;;;;;;11.38;7.78;;;15.90;99.90;;;;;;6245678;23;20020;-75
2022/09/30 10:45:24;;;;;;;10.27;7.68;;;16.00;99.90;;;;;;6221565;23;20023;-73
2022/09/30 10:47:52;;;;;;;11.82;7.90;;;16.20;99.90;;;;;;6220095;23;20059;-75
2022/09/30 10:50:26;;;;;;;10.65;5.65;;;16.50;99.40;;;;;;6222313;23;20020;-77
2022/09/30 10:53:10;;;;;;;6.50;4.47;;;17.00;98.10;;;;;;6221647;23;20000;-75
2022/09/30 10:55:45;;;;;;;8.23;4.25;;;17.40;95.10;;;;;;6221306;23;20067;-77
2022/09/30 10:58:40;;;;;;;6.75;3.47;;;18.00;95.00;;;;;;6224353;23;20004;-79
2022/09/30 11:01:31;;;;;;;6.00;3.85;;;18.60;93.50;;;;;;6224550;23;20005;-76
2022/09/30 11:04:19;;;;;;;6.65;4.40;;;19.30;92.70;;;;;;6223815;23;20008;-77
2022/09/30 11:06:50;;;;;;;6.75;3.70;;;20.10;90.70;;;;;;6222701;23;20004;-78
2022/09/30 11:09:43;;;;;;;7.93;4.20;;;20.80;88.30;;;;;;6222952;23;20001;-79
2022/09/30 11:12:50;;;;;;;6.72;4.05;;;21.50;86.10;;;;;;6224964;23;20032;-80
2022/09/30 11:15:54;;;;;;;8.40;4.75;;;22.00;83.50;;;;;;6225695;23;20000;-78
2022/09/30 11:18:46;;;;;;;6.60;4.28;;;22.60;81.20;;;;;;6223417;23;20005;-77
2022/09/30 11:24:49;;;;;;;4.53;3.00;;;24.00;75.40;;;;;;6224700;23;20063;-78
2022/09/30 11:27:43;;;;;;;3.85;2.70;;;24.20;71.10;;;;;;6228778;23;20001;-76
2022/09/30 11:30:49;;;;;;;5.18;2.55;;;24.40;69.70;;;;;;6248570;23;20050;-77
2022/09/30 11:37:36;;;;;;;3.95;2.20;;;24.80;68.60;;;;;;6225625;23;20329;-78
2022/09/30 11:40:36;;;;;;;4.53;2.30;;;25.30;67.30;;;;;;6164228;23;20321;-78
2022/09/30 11:43:13;;;;;;;4.18;1.95;;;25.70;64.90;;;;;;6163199;23;20300;-75
2022/09/30 11:46:09;;;;;;;2.63;1.83;;;26.30;63.70;;;;;;6161610;23;20001;-78
2022/09/30 11:49:23;;;;;;;3.90;1.83;;;26.90;61.10;;;;;;6163478;23;20044;-79
2022/09/30 11:52:21;;;;;;;6.45;2.97;;;27.30;61.60;;;;;;6162671;23;19909;-78
2022/09/30 11:55:50;;;;;;;5.55;2.40;;;27.00;62.10;;;;;;6163006;23;20087;-79
2022/09/30 11:58:39;;;;;;;4.18;2.72;;;26.70;63.60;;;;;;6192271;23;20005;-79
2022/09/30 12:01:42;;;;;;;4.30;2.13;;;27.30;62.00;;;;;;6216825;23;20032;-80
2022/09/30 12:04:45;;;;;;;3.85;1.98;;;28.70;60.20;;;;;;6193854;23;20008;-79
2022/09/30 12:07:25;;;;;;;4.43;2.20;;;29.70;60.20;;;;;;6190934;23;20338;-79
2022/09/30 12:10:04;;;;;;;4.22;2.13;;;30.40;58.10;;;;;;6219394;23;20008;-79
2022/09/30 12:12:32;;;;;;;3.25;1.70;;;30.60;57.80;;;;;;6250703;23;20033;-80
2022/09/30 12:15:37;;;;;;;3.88;2.20;;;31.00;54.70;;;;;;6249717;23;20000;-78
2022/09/30 12:22:11;;;;;;;3.55;1.90;;;30.90;54.80;;;;;;6163551;23;20330;-81
2022/09/30 12:24:49;;;;;;;2.92;2.13;;;31.80;53.90;;;;;;6189350;23;20001;-79
2022/09/30 12:27:51;;;;;;;4.32;2.60;;;32.20;53.80;;;;;;6188799;23;20104;-77
2022/09/30 12:30:50;;;;;;;4.53;2.22;;;32.00;52.70;;;;;;6140429;23;20004;-80
2022/09/30 12:34:01;;;;;;;2.90;1.77;;;32.40;52.50;;;;;;6189259;23;20039;-79
2022/09/30 12:36:46;;;;;;;3.03;1.27;;;32.40;51.70;;;;;;6113045;23;20029;-79
2022/09/30 12:43:05;;;;;;;3.15;1.27;;;32.70;49.90;;;;;;6134561;23;20017;-80
2022/09/30 12:45:50;;;;;;;2.95;1.45;;;33.60;49.30;;;;;;6135621;23;20001;-78
2022/09/30 12:51:52;;;;;;;2.85;1.20;;;33.90;48.40;;;;;;6171854;23;20199;-78
2022/09/30 12:54:51;;;;;;;2.83;0.80;;;34.30;48.50;;;;;;6141099;23;20025;-80
2022/09/30 12:57:35;;;;;;;3.10;1.20;;;34.00;46.90;;;;;;6165751;23;20039;-78
2022/09/30 13:00:22;;;;;;;2.38;1.00;;;33.30;47.90;;;;;;6189568;23;20155;-80
2022/09/30 13:02:58;;;;;;;4.35;1.40;;;34.30;47.20;;;;;;6189430;23;20005;-79
2022/09/30 13:05:42;;;;;;;3.85;1.30;;;34.50;46.20;;;;;;6165749;23;20083;-78
2022/09/30 13:08:54;;;;;;;2.20;1.20;;;34.60;46.00;;;;;;6170218;23;20023;-78
2022/09/30 13:12:11;;;;;;;2.78;1.10;;;35.60;45.60;;;;;;6165296;23;20001;-77
2022/09/30 13:14:44;;;;;;;3.38;0.90;;;35.80;44.80;;;;;;6243072;23;20046;-80
2022/09/30 13:17:31;;;;;;;1.70;0.70;;;34.00;43.80;;;;;;6221608;23;20083;-80
2022/09/30 13:19:58;;;;;;;3.50;1.30;;;33.60;44.20;;;;;;6134760;23;20313;-78
2022/09/30 13:22:45;;;;;;;1.80;0.88;;;33.40;43.90;;;;;;6134044;23;20008;-81
2022/09/30 13:25:21;;;;;;;1.17;0.50;;;34.40;42.60;;;;;;6159576;23;20028;-79
2022/09/30 13:28:28;;;;;;;2.00;0.55;;;32.60;46.00;;;;;;6185427;23;20037;-77
2022/09/30 13:31:26;;;;;;;2.85;0.90;;;31.60;46.10;;;;;;6159716;23;20226;-77
2022/09/30 13:34:01;;;;;;;3.70;0.63;;;29.90;46.90;;;;;;6129167;23;20010;-79
2022/09/30 13:37:13;;;;;;;2.13;0.70;;;28.30;48.90;;;;;;6130133;23;20424;-79
2022/09/30 13:39:59;;;;;;;1.45;0.50;;;27.70;50.00;;;;;;6047345;23;20272;-78
2022/09/30 13:42:31;;;;;;;2.03;0.40;;;29.10;46.60;;;;;;6072465;23;20006;-78
2022/09/30 13:45:22;;;;;;;1.55;0.60;;;28.60;48.30;;;;;;6073621;23;20296;-78
2022/09/30 13:48:03;;;;;;;2.63;0.60;;;26.90;47.20;;;;;;6047707;23;20011;-79
2022/09/30 13:50:45;;;;;;;2.30;0.50;;;26.10;50.60;;;;;;6071821;23;20006;-78
2022/09/30 13:53:38;;;;;;;2.17;0.55;;;25.30;50.50;;;;;;6047461;23;20011;-78
2022/09/30 13:56:18;;;;;;;1.65;0.50;;;24.90;53.80;;;;;;6076750;23;20350;-78
2022/09/30 13:59:08;;;;;;;1.65;0.60;;;25.20;54.20;;;;;;6070861;23;20335;-77
2022/09/30 14:02:11;;;;;;;1.88;0.88;;;24.60;50.90;;;;;;6070533;23;20081;-81
2022/09/30 14:04:57;;;;;;;1.15;0.40;;;24.10;52.60;;;;;;6070471;23;20249;-77
2022/09/30 14:07:36;;;;;;;1.45;0.43;;;23.80;58.10;;;;;;6071029;23;20026;-77
2022/09/30 14:10:45;;;;;;;4.13;0.80;;;23.80;57.20;;;;;;6071806;23;20066;-79
2022/09/30 14:13:31;;;;;;;1.67;0.40;;;23.40;53.50;;;;;;6063217;23;20009;-77
2022/09/30 14:16:43;;;;;;;1.58;0.40;;;23.60;56.20;;;;;;6112853;23;20012;-78
2022/09/30 14:19:37;;;;;;;1.13;0.45;;;24.30;54.80;;;;;;6145649;23;20029;-79
2022/09/30 14:22:14;;;;;;;3.10;0.70;;;24.70;56.80;;;;;;6167679;23;20037;-75
2022/09/30 14:24:41;;;;;;;4.55;0.60;;;24.40;55.80;;;;;;6136840;23;20009;-77
2022/09/30 14:27:52;;;;;;;3.42;1.00;;;24.10;56.70;;;;;;6111409;23;20042;-76
2022/09/30 14:30:29;;;;;;;2.00;1.00;;;23.80;59.10;;;;;;6076498;23;20006;-78
2022/09/30 14:40:00;;;;;;;3.95;1.75;;;23.00;59.00;;;;;;6133275;23;20014;-80
2022/09/30 14:46:32;;;;;;;3.45;1.30;;;23.80;58.70;;;;;;6132037;23;20045;-81
2022/09/30 14:49:33;;;;;;;2.42;1.15;;;27.30;55.20;;;;;;6131059;23;20363;-80
2022/09/30 14:52:02;;;;;;;4.40;1.52;;;27.60;52.40;;;;;;6157125;23;20029;-79
2022/09/30 14:54:30;;;;;;;5.22;2.78;;;26.40;53.20;;;;;;6156963;23;20024;-78
2022/09/30 14:57:13;;;;;;;4.78;2.58;;;25.70;54.60;;;;;;6131195;23;20013;-80
2022/09/30 14:59:48;;;;;;;4.82;1.85;;;26.60;55.20;;;;;;6131695;23;20102;-79
2022/09/30 15:02:58;;;;;;;3.13;1.40;;;29.20;51.90;;;;;;6132455;23;20013;-79
2022/09/30 15:05:44;;;;;;;3.13;1.40;;;31.40;49.60;;;;;;6132622;23;20334;-81
2022/09/30 15:08:25;;;;;;;3.00;1.40;;;33.10;47.80;;;;;;6224198;23;20004;-79
2022/09/30 15:11:40;;;;;;;3.95;1.67;;;33.50;46.60;;;;;;6224232;23;20239;-79
2022/09/30 15:15:11;;;;;;;2.25;1.27;;;34.10;46.00;;;;;;6129118;23;20065;-79
2022/09/30 15:17:46;;;;;;;3.38;1.80;;;34.00;45.70;;;;;;6132617;23;20045;-80
2022/09/30 15:20:47;;;;;;;2.78;1.63;;;34.70;45.60;;;;;;6132406;23;20037;-80
2022/09/30 15:23:32;;;;;;;2.95;1.25;;;35.20;44.70;;;;;;6132889;23;20029;-80
2022/09/30 15:25:58;;;;;;;2.72;1.08;;;35.10;44.50;;;;;;6133002;23;20355;-80
2022/09/30 15:29:14;;;;;;;2.35;1.20;;;34.60;44.40;;;;;;6132113;23;20025;-80
2022/09/30 15:32:26;;;;;;;2.10;0.93;;;34.50;44.60;;;;;;6148637;23;20083;-80
2022/09/30 15:35:19;;;;;;;2.58;1.40;;;34.60;45.30;;;;;;6112405;23;20252;-80
2022/09/30 15:37:45;;;;;;;2.95;1.27;;;34.30;44.60;;;;;;6087837;23;20323;-80
2022/09/30 15:40:45;;;;;;;3.78;1.58;;;33.90;44.70;;;;;;6103134;23;20010;-81
2022/09/30 15:43:44;;;;;;;4.68;1.35;;;33.80;43.90;;;;;;6076506;23;20014;-81
2022/09/30 15:47:29;;;;;;;4.03;1.33;;;33.80;44.70;;;;;;6076448;23;20009;-80
2022/09/30 15:49:59;;;;;;;2.33;1.10;;;33.80;45.90;;;;;;6052517;23;20007;-80
2022/09/30 15:52:36;;;;;;;3.42;1.10;;;33.80;45.10;;;;;;6134726;23;20012;-80
2022/09/30 15:55:45;;;;;;;4.18;1.25;;;33.80;44.50;;;;;;6185456;23;20005;-81
2022/09/30 15:58:45;;;;;;;5.80;4.43;;;33.40;45.50;;;;;;6194726;23;20016;-80
2022/09/30 16:01:32;;;;;;;3.30;2.22;;;32.80;44.90;;;;;;6176431;23;20015;-80
2022/09/30 16:04:16;;;;;;;3.45;1.95;;;32.90;45.10;;;;;;6219237;23;20012;-80
2022/09/30 16:07:18;;;;;;;5.70;1.47;;;32.80;45.40;;;;;;6195821;23;20001;-80
2022/09/30 16:09:47;;;;;;;3.80;1.52;;;33.10;46.80;;;;;;6218622;23;20060;-80
2022/09/30 16:12:13;;;;;;;2.92;1.30;;;32.80;45.30;;;;;;6169305;23;20005;-81
2022/09/30 16:14:54;;;;;;;2.90;1.00;;;32.20;45.40;;;;;;6188376;23;20227;-81
2022/09/30 16:17:56;;;;;;;3.67;0.80;;;31.70;46.80;;;;;;6138917;23;20005;-79
2022/09/30 16:21:03;;;;;;;2.70;1.30;;;31.10;47.30;;;;;;6164316;23;20009;-78
2022/09/30 16:23:55;;;;;;;4.15;1.50;;;29.20;48.70;;;;;;6163320;23;20245;-80
2022/09/30 16:26:32;;;;;;;3.33;1.40;;;27.10;51.90;;;;;;6139121;23;20143;-80
2022/09/30 16:29:14;;;;;;;2.40;1.48;;;25.40;54.20;;;;;;6163183;23;20005;-80
2022/09/30 16:31:41;;;;;;;4.07;1.33;;;23.90;57.40;;;;;;6163380;23;20015;-79
2022/09/30 16:34:35;;;;;;;3.70;1.27;;;22.80;59.00;;;;;;6163283;23;20021;-80
2022/09/30 16:37:10;;;;;;;3.17;1.58;;;21.90;62.40;;;;;;6212091;23;20016;-80
2022/09/30 16:39:36;;;;;;;5.47;1.77;;;21.10;62.50;;;;;;6194342;23;20011;-78
2022/09/30 16:42:31;;;;;;;2.75;1.50;;;20.50;64.70;;;;;;6191842;23;20009;-82
2022/09/30 16:44:59;;;;;;;5.38;1.65;;;20.00;65.90;;;;;;6218450;23;20015;-79
2022/09/30 16:47:31;;;;;;;4.30;1.92;;;19.70;69.70;;;;;;6195628;23;20004;-80
2022/09/30 16:49:58;;;;;;;5.32;2.40;;;19.40;69.70;;;;;;6168815;23;20341;-81
2022/09/30 16:52:32;;;;;;;3.60;1.88;;;19.30;70.40;;;;;;6193727;23;19992;-81
2022/09/30 16:55:01;;;;;;;4.35;1.90;;;19.10;71.20;;;;;;6194698;23;20512;-81
2022/09/30 16:58:03;;;;;;;4.60;1.77;;;18.90;72.30;;;;;;6195777;23;20061;-81
2022/09/30 17:00:29;;;;;;;4.43;2.38;;;18.70;71.30;;;;;;6169048;23;20054;-79
2022/09/30 17:02:59;;;;;;;4.25;1.77;;;18.50;72.60;;;;;;6168480;23;20371;-76
2022/09/30 17:05:25;;;;;;;4.43;1.92;;;18.40;74.10;;;;;;6194955;23;20001;-78
2022/09/30 17:07:52;;;;;;;3.72;2.30;;;18.30;74.10;;;;;;6167481;23;20005;-76
2022/09/30 17:10:25;;;;;;;5.40;2.40;;;18.10;74.70;;;;;;6168070;23;20054;-77
2022/09/30 17:12:54;;;;;;;6.60;2.72;;;17.90;73.40;;;;;;6193944;23;20005;-77
2022/09/30 17:15:23;;;;;;;3.80;2.50;;;17.60;74.00;;;;;;6194318;23;20035;-76
2022/09/30 17:17:49;;;;;;;7.13;2.97;;;17.30;77.00;;;;;;6193997;23;20092;-77
2022/09/30 17:20:15;;;;;;;6.70;3.00;;;17.10;78.00;;;;;;6194667;23;20072;-77
2022/09/30 17:22:41;;;;;;;5.90;3.42;;;16.80;80.40;;;;;;6194331;23;20032;-78
2022/09/30 17:25:08;;;;;;;6.72;4.18;;;16.60;80.00;;;;;;6168994;23;20009;-76
2022/09/30 17:27:34;;;;;;;5.90;3.67;;;16.40;80.50;;;;;;6194129;23;19993;-78
2022/09/30 17:30:08;;;;;;;5.90;3.90;;;16.20;82.40;;;;;;6168456;23;20029;-77
2022/09/30 17:32:35;;;;;;;6.88;3.47;;;16.10;82.50;;;;;;6195773;23;20287;-79
2022/09/30 17:35:07;;;;;;;7.30;3.60;;;15.80;82.30;;;;;;6194720;23;20288;-79
2022/09/30 17:37:36;;;;;;;5.97;2.97;;;15.50;84.10;;;;;;6173627;23;20005;-76
2022/09/30 17:43:07;;;;;;;5.90;3.00;;;15.50;85.60;;;;;;6224664;23;20000;-76
2022/09/30 17:45:34;;;;;;;5.00;3.30;;;15.40;85.90;;;;;;6198906;23;20004;-77
2022/09/30 17:48:00;;;;;;;5.20;3.50;;;15.10;84.50;;;;;;6223515;23;20004;-77
2022/09/30 17:50:29;;;;;;;8.50;4.10;;;14.80;85.90;;;;;;6174475;23;20008;-76
2022/09/30 17:52:55;;;;;;;10.75;6.70;;;14.50;87.70;;;;;;6198416;23;20008;-76
2022/09/30 17:55:21;;;;;;;10.73;5.15;;;14.30;88.00;;;;;;6225803;23;20056;-77
2022/09/30 17:57:47;;;;;;;9.23;4.40;;;14.20;89.00;;;;;;6199408;23;20309;-78
2022/09/30 18:00:13;;;;;;;7.95;4.38;;;14.00;90.30;;;;;;6200560;23;20008;-77
2022/09/30 18:02:40;;;;;;;7.03;3.92;;;14.00;90.40;;;;;;6200691;23;20214;-78
2022/09/30 18:05:09;;;;;;;6.87;4.07;;;14.00;90.50;;;;;;6199963;23;20266;-77
2022/09/30 18:07:35;;;;;;;7.20;3.63;;;14.00;91.10;;;;;;6198686;23;20316;-78
2022/09/30 18:10:01;;;;;;;6.82;3.83;;;13.90;90.30;;;;;;6198648;23;20004;-77
2022/09/30 18:12:27;;;;;;;9.07;4.10;;;13.60;90.90;;;;;;6197630;23;20031;-77
2022/09/30 18:14:53;;;;;;;7.75;4.18;;;13.50;91.40;;;;;;6222026;23;20005;-78
2022/09/30 18:17:19;;;;;;;10.63;4.68;;;13.50;92.00;;;;;;6198224;23;20027;-77
2022/09/30 18:19:45;;;;;;;7.05;4.55;;;13.60;91.90;;;;;;6191181;23;20307;-77
2022/09/30 18:22:11;;;;;;;10.98;4.95;;;13.50;92.00;;;;;;6191081;23;20005;-78
2022/09/30 18:27:22;;;;;;;7.90;4.50;;;13.30;92.80;;;;;;6193700;23;20009;-76
2022/09/30 18:29:48;;;;;;;9.18;4.85;;;13.40;93.20;;;;;;6168465;23;20033;-76
2022/09/30 18:32:16;;;;;;;9.10;4.93;;;13.40;93.00;;;;;;6170387;23;19997;-75
2022/09/30 18:34:42;;;;;;;9.05;5.15;;;13.40;93.60;;;;;;6171004;23;20009;-76
2022/09/30 18:37:08;;;;;;;7.97;5.35;;;13.30;93.60;;;;;;6197895;23;20036;-78
2022/09/30 18:39:38;;;;;;;10.93;5.80;;;13.20;93.90;;;;;;6201646;23;20017;-77
2022/09/30 18:42:04;;;;;;;12.73;6.72;;;13.00;94.40;;;;;;6199549;23;20230;-78
2022/09/30 18:44:36;;;;;;;10.35;5.65;;;12.80;94.70;;;;;;6221720;23;20032;-77
2022/09/30 18:47:04;;;;;;;13.70;7.85;;;12.70;95.30;;;;;;6218790;23;20031;-75
2022/09/30 18:49:31;;;;;;;11.63;6.43;;;12.70;95.20;;;;;;6193768;23;20005;-76
2022/09/30 18:51:57;;;;;;;6.80;4.50;;;12.50;95.50;;;;;;6191686;23;20029;-77
2022/09/30 18:54:23;;;;;;;8.95;5.00;;;12.40;95.40;;;;;;6167548;23;20004;-76
2022/09/30 18:56:50;;;;;;;9.23;4.72;;;12.30;95.80;;;;;;6224142;23;20202;-78
2022/09/30 18:59:16;;;;;;;8.35;5.07;;;12.20;96.30;;;;;;6175073;23;20198;-78
2022/09/30 19:01:45;;;;;;;9.02;4.85;;;12.10;96.90;;;;;;6224558;23;20059;-76
2022/09/30 19:04:11;;;;;;;9.80;4.97;;;12.00;97.40;;;;;;6224747;23;20104;-78
2022/09/30 19:06:40;;;;;;;8.90;4.80;;;11.90;97.70;;;;;;6200828;23;20005;-76
2022/09/30 19:09:07;;;;;;;10.02;5.43;;;11.90;98.40;;;;;;6201203;23;20088;-76
2022/09/30 19:11:35;;;;;;;9.43;5.05;;;11.90;98.30;;;;;;6225349;23;20011;-78
2022/09/30 19:14:02;;;;;;;8.30;4.60;;;11.90;98.90;;;;;;6176266;23;19996;-76
2022/09/30 19:16:31;;;;;;;8.68;4.85;;;11.70;99.40;;;;;;6199836;23;20015;-77
2022/09/30 19:19:03;;;;;;;7.57;4.47;;;11.70;99.80;;;;;;6227207;23;20211;-78
2022/09/30 19:21:31;;;;;;;8.10;4.45;;;11.70;99.90;;;;;;6229289;23;20004;-77
2022/09/30 19:23:58;;;;;;;13.23;7.35;;;11.60;99.90;;;;;;6227444;23;20290;-76
2022/09/30 19:26:28;;;;;;;10.38;6.30;;;11.50;99.90;;;;;;6202167;23;20031;-77
2022/09/30 19:28:53;;;;;;;10.20;5.70;;;11.40;99.90;;;;;;6201823;23;20008;-78
2022/09/30 19:31:20;;;;;;;9.88;5.68;;;11.50;99.90;;;;;;6201428;23;20013;-77
2022/09/30 19:33:52;;;;;;;12.57;6.03;;;11.40;99.90;;;;;;6227619;23;20356;-77
2022/09/30 19:36:18;;;;;;;10.90;5.75;;;11.40;99.90;;;;;;6176405;23;20063;-78
2022/09/30 19:38:45;;;;;;;9.65;5.22;;;11.30;99.90;;;;;;6202351;23;20004;-76
2022/09/30 19:41:14;;;;;;;10.60;5.70;;;11.20;99.90;;;;;;6226691;23;20015;-77
2022/09/30 19:43:41;;;;;;;10.52;5.68;;;11.20;99.90;;;;;;6202823;23;20012;-77
2022/09/30 19:46:10;;;;;;;13.02;5.40;;;11.10;99.90;;;;;;6201959;23;20048;-77
2022/09/30 19:48:38;;;;;;;9.90;5.90;;;11.00;99.90;;;;;;6202367;23;20016;-77
2022/09/30 19:51:10;;;;;;;10.93;6.07;;;10.90;99.90;;;;;;6200543;23;20009;-77
2022/09/30 19:53:38;;;;;;;10.85;6.00;;;10.90;99.90;;;;;;6226176;23;20000;-78
2022/09/30 19:56:11;;;;;;;11.73;6.45;;;10.80;99.90;;;;;;6201145;23;20442;-77
2022/09/30 19:58:39;;;;;;;8.98;6.05;;;10.70;99.90;;;;;;6177114;23;20012;-78
2022/09/30 20:01:06;;;;;;;10.85;6.53;;;10.60;99.90;;;;;;6201312;23;20121;-76
2022/09/30 20:03:32;;;;;;;10.43;6.15;;;10.60;99.90;;;;;;6227309;23;20004;-77